Time;durP1;ratioP1;P1;durP2;ratioP2;P2;SDS_P1;SDS_P2;PMS_P1;PMS_P2;Temp;Humidity;BMP_temperature;BMP_pressure;BME280_temperature;BME280_humidity;BME280_pressure;Samples;Min_cycle;Max_cycle;Signal;HPM_P1;HPM_P2
2024/01/21 00:01:19;;;;;;;8.68;5.05;;;0.50;72.90;;;;;;5011551;28;20024;-60
2024/01/21 00:03:46;;;;;;;10.52;6.57;;;0.50;72.30;;;;;;5010811;28;20558;-59
2024/01/21 00:06:13;;;;;;;9.63;5.57;;;0.50;72.20;;;;;;5011964;28;20096;-58
2024/01/21 00:08:39;;;;;;;8.70;5.45;;;0.50;72.50;;;;;;5011533;28;20018;-60
2024/01/21 00:11:07;;;;;;;9.68;5.35;;;0.50;72.30;;;;;;5004926;28;20081;-60
2024/01/21 00:13:36;;;;;;;9.35;6.10;;;0.50;72.80;;;;;;5031452;28;20018;-60
2024/01/21 00:16:03;;;;;;;7.47;5.05;;;0.40;73.10;;;;;;5013935;28;20037;-60
2024/01/21 00:18:33;;;;;;;7.88;5.13;;;0.40;73.40;;;;;;5005244;28;20054;-60
2024/01/21 00:20:59;;;;;;;9.07;5.10;;;0.50;73.00;;;;;;4999982;28;20061;-60
2024/01/21 00:23:26;;;;;;;10.82;5.97;;;0.50;73.30;;;;;;5011542;28;20093;-59
2024/01/21 00:25:55;;;;;;;8.80;5.00;;;0.50;73.30;;;;;;5030945;28;20097;-59
2024/01/21 00:28:22;;;;;;;12.60;5.95;;;0.50;73.30;;;;;;5006556;28;20026;-59
2024/01/21 00:30:49;;;;;;;9.82;5.60;;;0.50;73.50;;;;;;5012529;28;20370;-59
2024/01/21 00:33:16;;;;;;;7.25;4.72;;;0.50;73.10;;;;;;5013875;28;20029;-59
2024/01/21 00:35:44;;;;;;;8.75;5.70;;;0.50;73.30;;;;;;5011826;28;20349;-59
2024/01/21 00:38:11;;;;;;;8.43;4.80;;;0.60;72.90;;;;;;5014613;28;20030;-58
2024/01/21 00:40:37;;;;;;;10.63;5.90;;;0.60;72.50;;;;;;5031143;28;20040;-57
2024/01/21 00:43:04;;;;;;;9.75;4.97;;;0.50;72.70;;;;;;4994434;28;20022;-52
2024/01/21 00:45:31;;;;;;;9.20;6.07;;;0.60;72.00;;;;;;5014651;28;20032;-57
2024/01/21 00:47:58;;;;;;;10.02;5.75;;;0.50;72.50;;;;;;5033749;28;20029;-54
2024/01/21 00:50:26;;;;;;;9.80;5.68;;;0.50;72.50;;;;;;5015138;28;20034;-56
2024/01/21 00:52:53;;;;;;;9.18;5.32;;;0.50;72.20;;;;;;4996752;28;20350;-56
2024/01/21 00:55:19;;;;;;;9.93;5.18;;;0.50;71.90;;;;;;4997623;28;20034;-55
2024/01/21 00:57:47;;;;;;;10.65;6.13;;;0.50;71.30;;;;;;5015295;28;20026;-57
2024/01/21 01:00:14;;;;;;;9.55;5.13;;;0.50;71.60;;;;;;5013239;28;20026;-55
2024/01/21 01:02:42;;;;;;;8.25;4.40;;;0.50;71.60;;;;;;5014767;28;20064;-56
2024/01/21 01:05:09;;;;;;;7.80;4.85;;;0.50;71.60;;;;;;5001117;28;20030;-57
2024/01/21 01:07:35;;;;;;;9.63;5.30;;;0.50;71.70;;;;;;5016489;28;20025;-52
2024/01/21 01:10:01;;;;;;;10.07;4.90;;;0.50;71.40;;;;;;5034568;28;20430;-52
2024/01/21 01:12:28;;;;;;;9.95;5.75;;;0.50;71.50;;;;;;5010284;28;20034;-57
2024/01/21 01:14:57;;;;;;;9.20;5.13;;;0.50;71.40;;;;;;5030144;28;20316;-53
2024/01/21 01:17:23;;;;;;;8.43;5.03;;;0.50;71.60;;;;;;5000615;28;20504;-54
2024/01/21 01:19:50;;;;;;;6.25;4.80;;;0.50;71.50;;;;;;5016178;28;20121;-53
2024/01/21 01:22:17;;;;;;;6.97;4.78;;;0.50;71.20;;;;;;5014560;28;20033;-52
2024/01/21 01:24:43;;;;;;;8.38;4.68;;;0.50;70.50;;;;;;5014476;28;20375;-52
2024/01/21 01:27:13;;;;;;;8.63;4.80;;;0.50;70.90;;;;;;4999992;28;20034;-55
2024/01/21 01:29:40;;;;;;;8.93;5.22;;;0.50;71.50;;;;;;5014552;28;20119;-56
2024/01/21 01:32:07;;;;;;;7.60;4.18;;;0.50;70.70;;;;;;5014479;28;20406;-53
2024/01/21 01:34:33;;;;;;;9.73;5.07;;;0.50;70.10;;;;;;5003244;28;20347;-54
2024/01/21 01:36:59;;;;;;;8.48;4.88;;;0.50;70.30;;;;;;5018210;28;20033;-54
2024/01/21 01:39:26;;;;;;;16.65;5.78;;;0.50;70.40;;;;;;5033514;28;20484;-52
2024/01/21 01:41:53;;;;;;;8.77;4.43;;;0.50;70.30;;;;;;5003525;28;20032;-54
2024/01/21 01:44:19;;;;;;;10.13;4.32;;;0.50;70.20;;;;;;5032327;28;20038;-53
2024/01/21 01:46:46;;;;;;;6.68;3.88;;;0.50;69.80;;;;;;5008177;28;20056;-51
2024/01/21 01:49:15;;;;;;;8.90;4.35;;;0.60;69.70;;;;;;5033791;28;20144;-55
2024/01/21 01:51:42;;;;;;;7.43;4.43;;;0.60;69.50;;;;;;5031587;28;20100;-55
2024/01/21 01:54:09;;;;;;;7.80;4.60;;;0.60;68.80;;;;;;5026384;28;20443;-51
2024/01/21 01:56:35;;;;;;;7.43;4.05;;;0.60;69.60;;;;;;5023623;28;20095;-55
2024/01/21 01:59:06;;;;;;;8.02;4.88;;;0.60;68.80;;;;;;5025154;28;20030;-52
2024/01/21 02:01:33;;;;;;;6.80;3.92;;;0.60;69.00;;;;;;5013352;28;20030;-54
2024/01/21 02:04:04;;;;;;;8.13;5.13;;;0.60;69.60;;;;;;5013426;28;20124;-52
2024/01/21 02:06:33;;;;;;;9.07;4.75;;;0.60;69.20;;;;;;5013000;28;20084;-51
2024/01/21 02:09:00;;;;;;;8.73;4.32;;;0.60;69.00;;;;;;5014342;28;20045;-55
2024/01/21 02:11:27;;;;;;;8.60;4.25;;;0.60;69.10;;;;;;5031921;28;20049;-54
2024/01/21 02:13:54;;;;;;;6.88;4.15;;;0.70;68.60;;;;;;5017200;28;20029;-53
2024/01/21 02:16:21;;;;;;;7.25;3.92;;;0.60;69.30;;;;;;5012831;28;20481;-51
2024/01/21 02:18:49;;;;;;;11.02;4.82;;;0.50;69.00;;;;;;5013195;28;20130;-53
2024/01/21 02:21:16;;;;;;;7.88;4.47;;;0.50;68.30;;;;;;5008645;28;20035;-51
2024/01/21 02:23:46;;;;;;;7.90;4.47;;;0.60;68.30;;;;;;5006371;28;20026;-54
2024/01/21 02:26:12;;;;;;;;;;;0.60;68.60;;;;;;5025813;28;20080;-56
2024/01/21 02:28:39;;;;;;;7.05;4.03;;;0.60;68.20;;;;;;5033178;28;20285;-54
2024/01/21 02:31:07;;;;;;;11.45;5.95;;;0.60;68.00;;;;;;5027277;28;20473;-50
2024/01/21 02:33:35;;;;;;;9.98;5.30;;;0.60;68.40;;;;;;5013580;28;20026;-52
2024/01/21 02:36:02;;;;;;;10.33;4.83;;;0.70;68.20;;;;;;5028532;28;20445;-53
2024/01/21 02:38:29;;;;;;;13.45;6.18;;;0.60;68.00;;;;;;5032783;28;20418;-55
2024/01/21 02:40:58;;;;;;;10.38;5.57;;;0.70;67.20;;;;;;5030439;28;20033;-52
2024/01/21 02:43:24;;;;;;;8.45;5.03;;;0.70;68.00;;;;;;5025294;28;20315;-50
2024/01/21 02:45:50;;;;;;;6.88;4.15;;;0.60;67.90;;;;;;5020085;28;20040;-50
2024/01/21 02:48:17;;;;;;;8.65;4.90;;;0.60;67.30;;;;;;5028117;28;20096;-50
2024/01/21 02:50:44;;;;;;;6.65;3.80;;;0.60;67.20;;;;;;5018394;28;20029;-52
2024/01/21 02:53:14;;;;;;;7.13;3.45;;;0.70;67.10;;;;;;5028725;28;20108;-54
2024/01/21 02:55:41;;;;;;;5.82;3.72;;;0.70;67.10;;;;;;5020762;28;20026;-53
2024/01/21 02:58:07;;;;;;;8.60;3.60;;;0.70;66.30;;;;;;5012859;28;20108;-53
2024/01/21 03:00:35;;;;;;;8.90;3.92;;;0.70;67.00;;;;;;5013097;28;20030;-54
2024/01/21 03:03:01;;;;;;;6.68;3.80;;;0.70;66.60;;;;;;4994796;28;20050;-50
2024/01/21 03:05:27;;;;;;;7.28;4.03;;;0.70;66.30;;;;;;5012962;28;20366;-52
2024/01/21 03:07:55;;;;;;;6.72;3.55;;;0.80;66.10;;;;;;5001179;28;20030;-52
2024/01/21 03:10:23;;;;;;;6.47;3.47;;;0.80;65.50;;;;;;5027520;28;20033;-51
2024/01/21 03:12:50;;;;;;;6.38;3.78;;;0.90;64.90;;;;;;5032548;28;20021;-50
2024/01/21 03:15:19;;;;;;;8.20;3.45;;;0.90;65.10;;;;;;5030425;28;20029;-51
2024/01/21 03:17:46;;;;;;;6.38;3.17;;;0.90;64.80;;;;;;5004173;28;20113;-49
2024/01/21 03:20:13;;;;;;;7.40;3.13;;;1.00;63.80;;;;;;5012819;28;20434;-53
2024/01/21 03:22:43;;;;;;;4.60;2.55;;;1.00;63.70;;;;;;4993088;28;20435;-54
2024/01/21 03:25:12;;;;;;;7.07;2.95;;;1.10;63.30;;;;;;5014094;28;20029;-52
2024/01/21 03:27:41;;;;;;;6.20;3.83;;;1.10;63.80;;;;;;5028207;28;20026;-52
2024/01/21 03:30:10;;;;;;;5.20;3.05;;;1.20;63.20;;;;;;5008208;28;20041;-52
2024/01/21 03:32:37;;;;;;;5.57;2.70;;;1.20;62.70;;;;;;5012570;28;20021;-49
2024/01/21 03:35:04;;;;;;;4.57;2.72;;;1.20;63.10;;;;;;5013952;28;20132;-54
2024/01/21 03:37:30;;;;;;;5.53;2.90;;;1.20;63.60;;;;;;5001981;28;20034;-51
2024/01/21 03:39:58;;;;;;;5.28;2.45;;;1.20;63.20;;;;;;5003903;28;20040;-53
2024/01/21 03:42:24;;;;;;;5.13;2.45;;;1.20;63.90;;;;;;5024214;28;20056;-51
2024/01/21 03:44:49;;;;;;;4.35;2.13;;;1.20;63.00;;;;;;5014661;28;20052;-51
2024/01/21 03:47:15;;;;;;;4.72;2.58;;;1.20;63.30;;;;;;5013148;28;20390;-52
2024/01/21 03:49:41;;;;;;;4.10;2.38;;;1.20;61.90;;;;;;5011051;28;20041;-53
2024/01/21 03:52:07;;;;;;;3.60;2.10;;;1.20;62.70;;;;;;4992913;28;20034;-52
2024/01/21 03:54:33;;;;;;;4.07;2.15;;;1.20;62.80;;;;;;5005497;28;20022;-52
2024/01/21 03:57:00;;;;;;;3.75;1.80;;;1.20;62.80;;;;;;5009968;28;20406;-53
2024/01/21 03:59:29;;;;;;;5.43;2.90;;;1.30;62.60;;;;;;5009119;28;20495;-51
2024/01/21 04:01:57;;;;;;;4.18;2.20;;;1.20;62.50;;;;;;5021064;28;20350;-52
2024/01/21 04:04:24;;;;;;;4.07;2.55;;;1.20;63.00;;;;;;5026209;28;20038;-53
2024/01/21 04:06:53;;;;;;;3.30;1.80;;;1.20;62.50;;;;;;4994649;28;20022;-52
2024/01/21 04:09:23;;;;;;;4.77;2.10;;;1.20;63.00;;;;;;5002265;28;20118;-50
2024/01/21 04:11:50;;;;;;;6.22;1.92;;;1.20;63.10;;;;;;5009148;28;20041;-55
2024/01/21 04:14:17;;;;;;;4.97;2.20;;;1.20;62.60;;;;;;4993108;28;20638;-53
2024/01/21 04:16:44;;;;;;;4.97;2.40;;;1.20;63.70;;;;;;5011772;28;20030;-52
2024/01/21 04:19:12;;;;;;;3.67;1.80;;;1.20;62.30;;;;;;5011492;28;20366;-53
2024/01/21 04:21:42;;;;;;;3.45;1.73;;;1.20;62.90;;;;;;4997946;28;20457;-54
2024/01/21 04:24:09;;;;;;;3.65;1.58;;;1.30;62.40;;;;;;5015892;28;20058;-54
2024/01/21 04:26:35;;;;;;;4.32;2.00;;;1.30;61.90;;;;;;5016325;28;20362;-51
2024/01/21 04:29:02;;;;;;;5.18;1.90;;;1.40;61.40;;;;;;4992258;28;20022;-57
2024/01/21 04:31:29;;;;;;;5.82;2.67;;;1.40;61.10;;;;;;5015141;28;20098;-55
2024/01/21 04:33:55;;;;;;;5.68;2.10;;;1.40;61.60;;;;;;5015504;28;20030;-52
2024/01/21 04:36:26;;;;;;;2.92;1.75;;;1.40;61.70;;;;;;5010740;28;20063;-54
2024/01/21 04:38:53;;;;;;;3.78;2.08;;;1.40;61.80;;;;;;5034695;28;20031;-58
2024/01/21 04:41:20;;;;;;;3.67;1.80;;;1.40;60.60;;;;;;5025399;28;20033;-57
2024/01/21 04:43:47;;;;;;;2.88;1.45;;;1.40;60.60;;;;;;5022837;28;20036;-54
2024/01/21 04:46:13;;;;;;;3.83;1.73;;;1.50;60.70;;;;;;5034490;28;20037;-55
2024/01/21 04:48:40;;;;;;;4.47;1.63;;;1.50;60.70;;;;;;5007530;28;20025;-54
2024/01/21 04:51:07;;;;;;;3.55;1.30;;;1.50;60.40;;;;;;5014706;28;20341;-56
2024/01/21 04:53:37;;;;;;;5.18;1.75;;;1.60;59.70;;;;;;5021376;28;20072;-54
2024/01/21 04:56:18;;;;;;;3.40;1.88;;;1.60;59.40;;;;;;5034808;28;20026;-57
2024/01/21 04:58:45;;;;;;;3.58;1.65;;;1.70;59.00;;;;;;5034728;28;20021;-56
2024/01/21 05:01:15;;;;;;;5.28;1.95;;;1.70;58.70;;;;;;5016806;28;20117;-58
2024/01/21 05:03:42;;;;;;;;;;;1.70;58.70;;;;;;5035583;28;20045;-56
2024/01/21 05:06:08;;;;;;;3.30;1.67;;;1.70;58.30;;;;;;5015160;28;19960;-57
2024/01/21 05:08:34;;;;;;;4.70;1.83;;;1.70;58.20;;;;;;5027870;28;20064;-57
2024/01/21 05:11:01;;;;;;;4.70;1.80;;;1.70;57.90;;;;;;5021409;28;20026;-56
2024/01/21 05:13:26;;;;;;;3.88;1.52;;;1.80;57.80;;;;;;5034623;28;20069;-58
2024/01/21 05:15:52;;;;;;;3.67;1.38;;;1.80;57.60;;;;;;5029150;28;20057;-59
2024/01/21 05:18:20;;;;;;;4.25;1.55;;;1.80;56.70;;;;;;5014844;28;20095;-60
2024/01/21 05:20:46;;;;;;;2.10;1.10;;;1.90;56.30;;;;;;4997301;28;20037;-59
2024/01/21 05:23:14;;;;;;;2.45;1.13;;;1.90;56.20;;;;;;5000406;28;20025;-58
2024/01/21 05:25:40;;;;;;;3.78;1.40;;;1.90;56.10;;;;;;5006457;28;20083;-59
2024/01/21 05:28:07;;;;;;;2.92;1.60;;;1.90;56.50;;;;;;5017627;28;20116;-60
2024/01/21 05:30:34;;;;;;;3.75;1.52;;;1.90;57.00;;;;;;5016247;28;20052;-60
2024/01/21 05:33:04;;;;;;;4.10;1.60;;;1.90;55.60;;;;;;5013332;28;20025;-59
2024/01/21 05:35:33;;;;;;;2.40;1.33;;;1.90;56.40;;;;;;5018450;28;20029;-59
2024/01/21 05:38:00;;;;;;;4.80;2.38;;;1.90;55.90;;;;;;5016472;28;20073;-60
2024/01/21 05:40:28;;;;;;;4.60;1.85;;;1.90;55.30;;;;;;4997158;28;20025;-61
2024/01/21 05:42:54;;;;;;;3.03;1.40;;;2.00;54.90;;;;;;5001553;28;20168;-60
2024/01/21 05:45:22;;;;;;;2.88;1.38;;;2.00;55.30;;;;;;5016645;28;20021;-61
2024/01/21 05:47:49;;;;;;;3.35;1.50;;;1.90;54.90;;;;;;5019957;28;20020;-60
2024/01/21 05:50:16;;;;;;;3.95;2.05;;;2.00;55.60;;;;;;5018187;28;20026;-60
2024/01/21 05:52:42;;;;;;;5.53;1.92;;;2.00;54.90;;;;;;5017756;28;20025;-61
2024/01/21 05:55:09;;;;;;;4.00;1.73;;;1.90;56.10;;;;;;5018722;28;20034;-61
2024/01/21 05:57:35;;;;;;;4.07;1.75;;;1.90;55.60;;;;;;5015534;28;20026;-61
2024/01/21 06:00:03;;;;;;;3.20;1.75;;;1.90;55.00;;;;;;5014862;28;20029;-59
2024/01/21 06:02:28;;;;;;;3.85;1.90;;;2.00;54.90;;;;;;5016305;28;20350;-60
2024/01/21 06:04:58;;;;;;;2.95;1.67;;;2.00;55.80;;;;;;5020350;28;20026;-61
2024/01/21 06:07:24;;;;;;;2.08;1.23;;;1.90;55.80;;;;;;5017059;28;20057;-61
2024/01/21 06:09:51;;;;;;;4.13;1.48;;;1.90;55.80;;;;;;5004411;28;20124;-58
2024/01/21 06:12:17;;;;;;;3.92;1.55;;;1.90;55.70;;;;;;5019156;28;20025;-58
2024/01/21 06:14:46;;;;;;;5.05;2.15;;;2.00;55.60;;;;;;5031000;28;20581;-57
2024/01/21 06:17:13;;;;;;;4.10;2.03;;;1.90;56.60;;;;;;4999563;28;20044;-58
2024/01/21 06:19:43;;;;;;;3.75;1.70;;;2.00;55.90;;;;;;5013713;28;20048;-59
2024/01/21 06:22:09;;;;;;;3.28;1.48;;;1.90;55.80;;;;;;5013102;28;20038;-61
2024/01/21 06:24:36;;;;;;;4.38;2.50;;;2.00;55.00;;;;;;5013981;28;20512;-58
2024/01/21 06:27:07;;;;;;;2.78;1.63;;;2.00;55.10;;;;;;5017133;28;20064;-57
2024/01/21 06:29:33;;;;;;;3.33;1.83;;;2.00;55.60;;;;;;5009137;28;20037;-57
2024/01/21 06:32:03;;;;;;;5.43;1.92;;;2.00;54.10;;;;;;5007298;28;20073;-59
2024/01/21 06:34:30;;;;;;;4.65;1.77;;;2.10;54.30;;;;;;5016604;28;20022;-60
2024/01/21 06:36:55;;;;;;;2.65;1.30;;;2.10;54.20;;;;;;5018580;28;20038;-60
2024/01/21 06:39:21;;;;;;;3.90;2.67;;;2.10;54.80;;;;;;5019377;28;20041;-59
2024/01/21 06:41:51;;;;;;;4.32;1.48;;;2.10;55.70;;;;;;5020147;28;20014;-60
2024/01/21 06:44:16;;;;;;;2.63;1.40;;;2.00;56.00;;;;;;5018763;28;20459;-59
2024/01/21 06:46:43;;;;;;;2.63;1.30;;;2.10;54.90;;;;;;5002227;28;20131;-61
2024/01/21 06:49:10;;;;;;;3.78;1.52;;;2.10;54.40;;;;;;5022052;28;20025;-57
2024/01/21 06:51:46;;;;;;;4.95;1.70;;;2.10;55.70;;;;;;5017451;28;20026;-60
2024/01/21 06:54:13;;;;;;;4.05;2.05;;;2.10;55.20;;;;;;5032743;28;20164;-58
2024/01/21 06:56:41;;;;;;;5.28;1.90;;;2.10;55.10;;;;;;5003698;28;20416;-60
2024/01/21 06:59:07;;;;;;;4.60;1.85;;;2.10;54.90;;;;;;5022205;28;20519;-57
2024/01/21 07:01:34;;;;;;;3.58;2.22;;;2.10;55.10;;;;;;5018626;28;20032;-59
2024/01/21 07:04:01;;;;;;;3.58;1.77;;;2.20;55.20;;;;;;5010291;28;20645;-61
2024/01/21 07:06:28;;;;;;;4.47;1.75;;;2.10;54.80;;;;;;5012912;28;20030;-60
2024/01/21 07:08:55;;;;;;;3.30;1.50;;;2.20;54.80;;;;;;5002907;28;20029;-60
2024/01/21 07:11:21;;;;;;;3.53;1.73;;;2.20;55.10;;;;;;5013021;28;20377;-61
2024/01/21 07:13:47;;;;;;;3.30;1.75;;;2.20;55.40;;;;;;5024668;28;20021;-61
2024/01/21 07:16:16;;;;;;;4.30;2.25;;;2.10;56.30;;;;;;5000191;28;20048;-62
2024/01/21 07:18:43;;;;;;;3.45;1.85;;;2.10;56.40;;;;;;5023131;28;20022;-62
2024/01/21 07:21:10;;;;;;;3.75;2.20;;;2.10;56.40;;;;;;5022951;28;20017;-62
2024/01/21 07:23:40;;;;;;;5.45;2.70;;;2.10;56.90;;;;;;5023064;28;20453;-62
2024/01/21 07:26:06;;;;;;;;;;;2.10;56.00;;;;;;4997256;28;20116;-62
2024/01/21 07:28:33;;;;;;;4.72;2.13;;;2.10;56.90;;;;;;5020239;28;19983;-62
2024/01/21 07:31:00;;;;;;;3.47;1.75;;;2.10;55.70;;;;;;5012586;28;20358;-62
2024/01/21 07:33:27;;;;;;;3.78;2.00;;;2.20;56.30;;;;;;5021253;28;20104;-62
2024/01/21 07:35:57;;;;;;;4.45;2.38;;;2.10;56.80;;;;;;5025464;28;20086;-62
2024/01/21 07:38:23;;;;;;;4.40;2.40;;;2.10;56.10;;;;;;5010118;28;20462;-62
2024/01/21 07:40:50;;;;;;;6.82;1.90;;;2.10;57.30;;;;;;4990612;28;20093;-63
2024/01/21 07:43:16;;;;;;;3.70;1.50;;;2.00;57.30;;;;;;5008218;28;20088;-62
2024/01/21 07:45:42;;;;;;;6.57;2.00;;;2.00;57.20;;;;;;5002527;28;20026;-61
2024/01/21 07:48:09;;;;;;;4.47;1.95;;;2.10;56.60;;;;;;4992454;28;20097;-62
2024/01/21 07:50:36;;;;;;;6.25;2.28;;;2.10;57.40;;;;;;5006194;28;20566;-62
2024/01/21 07:53:02;;;;;;;3.50;1.95;;;2.10;57.90;;;;;;5008355;28;20043;-61
2024/01/21 07:55:28;;;;;;;4.40;2.50;;;2.10;58.60;;;;;;5010118;28;20060;-61
2024/01/21 07:57:54;;;;;;;4.55;2.10;;;2.10;57.70;;;;;;5007681;28;20048;-61
2024/01/21 08:00:22;;;;;;;4.22;2.00;;;2.10;56.20;;;;;;5006328;28;20088;-63
2024/01/21 08:02:49;;;;;;;3.05;1.75;;;2.10;56.10;;;;;;5004593;28;20178;-61
2024/01/21 08:05:16;;;;;;;3.45;1.60;;;2.10;57.40;;;;;;4991287;28;20026;-61
2024/01/21 08:07:42;;;;;;;4.82;2.10;;;2.10;57.30;;;;;;5008947;28;20382;-61
2024/01/21 08:10:09;;;;;;;4.55;1.75;;;2.20;57.20;;;;;;5015484;28;20033;-61
2024/01/21 08:12:39;;;;;;;3.95;1.75;;;2.20;56.30;;;;;;5027130;28;20032;-61
2024/01/21 08:15:05;;;;;;;3.63;1.75;;;2.20;57.20;;;;;;5021432;28;20029;-61
2024/01/21 08:17:32;;;;;;;4.13;1.70;;;2.20;57.00;;;;;;5012614;28;20065;-60
2024/01/21 08:19:59;;;;;;;3.72;1.73;;;2.20;57.60;;;;;;5009865;28;20351;-61
2024/01/21 08:22:26;;;;;;;3.38;1.63;;;2.20;58.60;;;;;;4991004;28;20021;-61
2024/01/21 08:24:54;;;;;;;4.30;1.67;;;2.20;58.00;;;;;;5012722;28;20084;-60
2024/01/21 08:27:20;;;;;;;5.13;2.03;;;2.20;58.40;;;;;;5017499;28;20013;-60
2024/01/21 08:29:47;;;;;;;3.05;1.67;;;2.20;58.00;;;;;;5011080;28;20068;-61
2024/01/21 08:32:16;;;;;;;4.55;1.80;;;2.30;57.80;;;;;;5018391;28;20029;-60
2024/01/21 08:34:44;;;;;;;3.53;1.83;;;2.40;57.90;;;;;;5007576;28;20042;-59
2024/01/21 08:37:11;;;;;;;4.90;2.00;;;2.40;57.60;;;;;;5009256;28;20117;-59
2024/01/21 08:39:43;;;;;;;3.80;1.95;;;2.40;57.00;;;;;;5014660;28;20061;-57
2024/01/21 08:42:09;;;;;;;3.47;1.60;;;2.40;57.10;;;;;;5007183;28;20026;-58
2024/01/21 08:44:38;;;;;;;4.72;2.10;;;2.40;57.30;;;;;;5006738;28;20092;-57
2024/01/21 08:47:05;;;;;;;4.05;2.72;;;2.50;57.30;;;;;;5003802;28;20057;-58
2024/01/21 08:49:32;;;;;;;4.13;1.80;;;2.60;56.50;;;;;;5018738;28;20065;-58
2024/01/21 08:51:59;;;;;;;3.80;1.73;;;2.70;56.10;;;;;;5018704;28;20018;-55
2024/01/21 08:54:26;;;;;;;4.60;2.72;;;2.70;56.60;;;;;;5013437;28;20040;-57
2024/01/21 08:56:53;;;;;;;4.43;2.72;;;2.70;56.60;;;;;;5020085;28;20026;-58
2024/01/21 08:59:21;;;;;;;4.17;2.57;;;2.70;57.10;;;;;;5018207;28;20045;-59
2024/01/21 09:01:49;;;;;;;4.75;2.20;;;2.80;56.10;;;;;;4996272;28;20061;-53
2024/01/21 09:04:15;;;;;;;5.03;3.22;;;2.80;57.10;;;;;;5021904;28;20041;-55
2024/01/21 09:06:42;;;;;;;5.45;2.58;;;2.80;57.30;;;;;;5020665;28;20504;-54
2024/01/21 09:09:11;;;;;;;4.72;1.88;;;2.80;57.80;;;;;;5023352;28;20084;-52
2024/01/21 09:11:39;;;;;;;5.97;2.00;;;2.80;58.60;;;;;;5019761;28;20050;-57
2024/01/21 09:14:06;;;;;;;4.70;2.63;;;2.80;57.40;;;;;;5025462;28;20033;-53
2024/01/21 09:16:33;;;;;;;3.92;2.03;;;2.80;58.30;;;;;;5025929;28;20030;-54
2024/01/21 09:19:00;;;;;;;4.85;2.60;;;2.90;56.90;;;;;;5010033;28;20034;-56
2024/01/21 09:21:31;;;;;;;5.13;2.47;;;2.80;57.00;;;;;;5027099;28;20026;-56
2024/01/21 09:23:57;;;;;;;5.82;2.78;;;2.90;56.90;;;;;;5005202;28;20025;-54
2024/01/21 09:26:24;;;;;;;4.28;2.38;;;2.90;57.20;;;;;;5013567;28;20125;-56
2024/01/21 09:28:50;;;;;;;4.40;2.17;;;2.90;57.20;;;;;;5012988;28;20041;-53
2024/01/21 09:31:17;;;;;;;5.78;2.88;;;2.90;58.00;;;;;;5024800;28;20026;-50
2024/01/21 09:33:42;;;;;;;4.60;2.65;;;2.90;57.20;;;;;;4994499;28;20358;-54
2024/01/21 09:36:11;;;;;;;4.97;1.98;;;2.90;57.70;;;;;;5020699;28;20033;-56
2024/01/21 09:38:39;;;;;;;4.97;2.28;;;2.90;58.30;;;;;;5012123;28;20117;-54
2024/01/21 09:41:36;;;;;;;4.68;2.80;;;2.90;59.30;;;;;;5020227;28;20046;-56
2024/01/21 09:44:04;;;;;;;4.53;2.63;;;2.90;58.90;;;;;;5010967;28;20041;-53
2024/01/21 09:46:34;;;;;;;4.63;2.75;;;2.90;59.20;;;;;;5015446;28;20053;-52
2024/01/21 09:49:03;;;;;;;5.25;2.83;;;2.90;59.40;;;;;;5018320;28;20097;-53
2024/01/21 09:51:30;;;;;;;4.45;2.47;;;2.90;59.10;;;;;;5011241;28;20033;-53
2024/01/21 09:53:57;;;;;;;6.72;3.10;;;2.90;60.10;;;;;;5014364;28;20058;-52
2024/01/21 09:56:24;;;;;;;5.43;3.05;;;2.80;60.00;;;;;;5019157;28;20473;-52
2024/01/21 09:58:52;;;;;;;5.43;2.95;;;2.80;60.70;;;;;;5020702;28;20050;-55
2024/01/21 10:01:21;;;;;;;5.72;3.22;;;2.80;60.40;;;;;;5017354;28;20026;-53
2024/01/21 10:03:50;;;;;;;5.30;2.90;;;2.90;60.20;;;;;;5019345;28;20126;-53
2024/01/21 10:06:17;;;;;;;6.22;3.53;;;2.90;60.10;;;;;;5018769;28;20382;-53
2024/01/21 10:08:49;;;;;;;4.95;3.30;;;2.90;60.80;;;;;;5021187;28;20018;-54
2024/01/21 10:11:15;;;;;;;6.63;3.75;;;2.90;61.00;;;;;;5021415;28;20053;-56
2024/01/21 10:13:44;;;;;;;8.20;3.75;;;3.00;60.60;;;;;;5027401;28;20059;-54
2024/01/21 10:16:12;;;;;;;8.70;3.20;;;3.00;60.90;;;;;;5022768;28;20499;-57
2024/01/21 10:18:46;;;;;;;8.25;4.07;;;2.90;61.10;;;;;;5020916;28;20504;-56
2024/01/21 10:21:19;;;;;;;7.05;3.47;;;3.00;60.80;;;;;;4994233;28;20034;-58
2024/01/21 10:23:47;;;;;;;6.10;3.40;;;3.00;62.20;;;;;;5022729;28;20615;-56
2024/01/21 10:26:14;;;;;;;7.55;4.43;;;3.10;61.10;;;;;;5024158;28;20025;-56
2024/01/21 10:28:41;;;;;;;7.18;3.63;;;3.10;61.40;;;;;;5012625;28;20045;-56
2024/01/21 10:31:09;;;;;;;5.45;3.38;;;3.20;62.60;;;;;;5025430;28;20103;-54
2024/01/21 10:33:35;;;;;;;8.40;3.97;;;3.10;62.90;;;;;;5016199;28;20036;-57
2024/01/21 10:36:03;;;;;;;7.45;4.03;;;3.10;63.80;;;;;;5016843;28;20037;-56
2024/01/21 10:38:29;;;;;;;5.80;3.50;;;3.20;64.40;;;;;;5024589;28;20030;-59
2024/01/21 10:40:59;;;;;;;7.47;4.45;;;3.20;64.50;;;;;;5011613;28;20105;-59
2024/01/21 10:43:26;;;;;;;9.20;4.78;;;3.20;64.50;;;;;;5030833;28;20049;-59
2024/01/21 10:45:53;;;;;;;7.72;4.47;;;3.10;64.50;;;;;;5015002;28;20693;-56
2024/01/21 10:48:22;;;;;;;8.43;4.90;;;3.10;65.40;;;;;;5022394;28;20016;-56
2024/01/21 10:50:52;;;;;;;6.80;3.92;;;3.10;66.60;;;;;;5017000;28;20037;-60
2024/01/21 10:53:20;;;;;;;12.57;5.53;;;3.10;67.10;;;;;;5017853;28;20115;-59
2024/01/21 10:55:51;;;;;;;9.90;5.00;;;3.10;67.80;;;;;;5031111;28;20032;-60
2024/01/21 10:58:18;;;;;;;8.10;4.13;;;3.10;67.50;;;;;;5021531;28;20057;-61
2024/01/21 11:00:45;;;;;;;7.22;4.43;;;3.10;68.30;;;;;;5011122;28;20081;-61
2024/01/21 11:03:25;;;;;;;7.63;4.57;;;3.10;69.00;;;;;;5025534;28;20050;-60
2024/01/21 11:06:07;;;;;;;7.03;4.25;;;3.10;69.30;;;;;;5011167;28;20033;-60
2024/01/21 11:08:35;;;;;;;7.70;5.55;;;3.10;70.10;;;;;;5002004;28;20120;-60
2024/01/21 11:11:13;;;;;;;7.28;4.88;;;3.20;70.50;;;;;;5001496;28;20184;-61
2024/01/21 11:13:59;;;;;;;10.80;5.68;;;3.30;70.70;;;;;;5008523;28;20049;-61
2024/01/21 11:16:30;;;;;;;8.93;4.60;;;3.40;71.20;;;;;;5012260;28;20026;-61
2024/01/21 11:19:08;;;;;;;7.85;4.78;;;3.40;70.70;;;;;;5006799;28;20065;-61
2024/01/21 11:21:43;;;;;;;8.88;5.18;;;3.40;70.70;;;;;;5011635;28;20017;-61
2024/01/21 11:24:31;;;;;;;9.82;5.55;;;3.40;70.90;;;;;;5005140;28;20458;-60
2024/01/21 11:26:58;;;;;;;8.07;5.32;;;3.40;71.40;;;;;;5019163;28;20049;-60
2024/01/21 11:29:36;;;;;;;8.95;4.65;;;3.50;71.80;;;;;;5016311;28;20029;-58
2024/01/21 11:32:06;;;;;;;8.95;5.35;;;3.40;72.20;;;;;;5001215;28;20121;-61
2024/01/21 11:34:50;;;;;;;12.88;5.60;;;3.50;72.40;;;;;;5001225;28;20033;-60
2024/01/21 11:37:17;;;;;;;7.53;5.07;;;3.60;72.00;;;;;;5018549;28;20365;-60
2024/01/21 11:39:49;;;;;;;7.70;5.57;;;3.60;72.50;;;;;;5002548;28;20041;-61
2024/01/21 11:42:21;;;;;;;7.63;5.53;;;3.60;72.30;;;;;;4993954;28;20117;-60
2024/01/21 11:45:03;;;;;;;7.07;5.35;;;3.60;72.70;;;;;;5011663;28;20109;-60
2024/01/21 11:47:30;;;;;;;6.97;4.97;;;3.60;73.30;;;;;;5006960;28;20026;-61
2024/01/21 11:49:59;;;;;;;7.97;5.35;;;3.70;73.50;;;;;;5027263;28;20021;-60
2024/01/21 11:52:26;;;;;;;11.68;6.53;;;3.80;73.20;;;;;;5021393;28;20034;-59
2024/01/21 11:54:52;;;;;;;12.88;5.45;;;3.80;73.50;;;;;;5012568;28;20033;-58
2024/01/21 11:57:19;;;;;;;8.60;6.25;;;3.80;73.50;;;;;;4997190;28;20032;-61
2024/01/21 11:59:52;;;;;;;10.85;6.18;;;3.80;73.60;;;;;;5009974;28;20489;-61
2024/01/21 12:02:19;;;;;;;8.90;5.60;;;3.70;74.20;;;;;;5005522;28;20014;-60
2024/01/21 12:04:49;;;;;;;8.90;5.45;;;3.80;73.90;;;;;;5010138;28;20045;-61
2024/01/21 12:07:18;;;;;;;7.80;6.05;;;3.70;74.30;;;;;;5009254;28;20022;-61
2024/01/21 12:09:44;;;;;;;9.45;6.55;;;3.70;74.70;;;;;;5011238;28;20022;-59
2024/01/21 12:12:13;;;;;;;8.88;6.32;;;3.70;75.20;;;;;;5007730;28;20076;-61
2024/01/21 12:14:39;;;;;;;8.45;5.28;;;3.80;75.20;;;;;;5016429;28;20025;-60
2024/01/21 12:17:05;;;;;;;8.70;6.20;;;3.80;75.40;;;;;;5007452;28;20030;-61
2024/01/21 12:19:32;;;;;;;9.68;6.10;;;3.80;75.50;;;;;;5010637;28;20042;-60
2024/01/21 12:21:59;;;;;;;10.68;6.90;;;3.80;75.80;;;;;;5010702;28;20112;-61
2024/01/21 12:24:26;;;;;;;12.00;6.57;;;3.90;75.90;;;;;;5011724;28;20091;-61
2024/01/21 12:26:55;;;;;;;8.85;6.38;;;3.90;76.00;;;;;;5012160;28;20562;-61
2024/01/21 12:29:22;;;;;;;10.35;6.28;;;3.90;76.50;;;;;;4993722;28;20448;-61
2024/01/21 12:31:49;;;;;;;8.48;5.85;;;3.90;76.60;;;;;;5011718;28;20091;-61
2024/01/21 12:34:19;;;;;;;10.55;5.78;;;4.00;76.70;;;;;;5009187;28;20022;-61
2024/01/21 12:36:46;;;;;;;;;;;4.00;76.80;;;;;;5010233;28;20022;-60
2024/01/21 12:39:13;;;;;;;9.00;5.97;;;4.00;77.10;;;;;;5002787;28;19913;-59
2024/01/21 12:41:39;;;;;;;11.00;7.10;;;4.00;77.20;;;;;;5004018;28;20026;-60
2024/01/21 12:44:06;;;;;;;8.55;5.95;;;3.90;77.50;;;;;;4972766;28;20030;-61
2024/01/21 12:46:33;;;;;;;10.00;6.72;;;3.90;77.90;;;;;;5014220;28;20045;-60
2024/01/21 12:49:00;;;;;;;12.80;7.10;;;3.90;78.00;;;;;;5010874;28;20095;-61
2024/01/21 12:51:28;;;;;;;8.32;5.95;;;3.90;78.30;;;;;;5001738;28;20034;-61
2024/01/21 12:53:54;;;;;;;9.70;6.07;;;3.90;78.60;;;;;;5017071;28;20069;-60
2024/01/21 12:56:26;;;;;;;9.82;7.03;;;3.90;78.80;;;;;;5009790;28;20026;-61
2024/01/21 12:58:55;;;;;;;9.45;6.22;;;3.90;79.00;;;;;;5009995;28;20029;-61
2024/01/21 13:01:22;;;;;;;9.48;6.75;;;3.90;79.00;;;;;;5006551;28;21002;-61